Impacts TAF Board
For situational awareness. Not to be used for flight planning purposes.
IDs:

KSAT - San Antonio Intl, TX, US

Issued at 1120 UTC 09 Dec 2019
Updated at 1342 UTC 09 Dec 2019
Potential Impact None Slight Moderate High
Time1251Z 09/14Z 09/15Z 09/16Z 09/17Z 09/18Z 09/19Z 09/20Z 09/21Z 09/22Z 09/23Z 10/00Z 10/01Z 10/02Z>>
Type OBS PRVL PRVL PRVL PRVL PRVL PRVL PRVL PRVL PRVL PRVL PRVL PRVL PRVL
VIS 0.25 0.5 3 3 3 >6 >6 >6 >6 >6 >6 >6 >6 >6
CIG 2 2 6 6 6 250 250 250 250 250 250 250 250 250
Cover OVX OVC BKN BKN BKN BKN BKN BKN BKN BKN BKN BKN BKN BKN
FltCat LIFR LIFR IFR IFR IFR VFR VFR VFR VFR VFR VFR VFR VFR VFR
WX FG FG BR BR BR -- -- -- -- -- -- -- -- --
WDir VRB 200 190 190 190 140 140 140 140 140 140 140 140 140
WSpd 0 4 4 4 4 5 5 5 5 5 5 5 5 5
WGst -- -- -- -- -- -- -- -- -- -- -- -- -- --
R04/22
XWnd VRB -1 -2 -2 -2 -5 -5 -5 -5 -5 -5 -5 -5 -5
HWnd VRB -4 -3 -3 -3 -1 -1 -1 -1 -1 -1 -1 -1 -1
R12/30
XWnd VRB -4 -3 -3 -3 -1 -1 -1 -1 -1 -1 -1 -1 -1
HWnd VRB 1 2 2 2 5 5 5 5 5 5 5 5 5
Raw TAF
KSAT 091120Z 0912/1018 20004KT 1/2SM FG OVC002
  FM091500 19004KT 3SM BR BKN006
  FM091800 14005KT P6SM SCT020 BKN250
  FM100300 02005KT P6SM VCSH BKN020
  FM100500 01015G25KT P6SM VCSH BKN025


Raw METAR
KSAT 091251Z 00000KT 1/4SM R13R/1400V4000FT FG VV002 18/17 A2987 RMK AO2 SLP100 T01780172
KSAT 091151Z 22004KT 1/4SM R13R/1400V2800FT FG VV002 18/17 A2985 RMK AO2 SLP094 T01780167 10178 20161 55001
KSAT 091051Z 20003KT 1/8SM R13R/1400FT FG VV002 18/17 A2984 RMK AO2 SLP091 T01780167

METAR Board
Radar Display
Forecast Discussion
For situational awareness. Not to be used for flight planning purposes.